Trailer Estates, Florida
Current Conditions -  °F | °C
As of 10:53 PM on Wednesday 26 Nov 2014 (Local Time) from KSRQ Reporting Station
Clear Clear  
Wind Chill: 47°   Ceiling: Unl
Heat Index: 49°   Visibility: 10mi
Dew Point: 44°   Wind: 5mph
Humidity: 83%   Direction: 330°NNW
Pressure: 30.22"   Gusts: NA
Location:  27.4879°N, 82.5789°W
Report Text: KSRQ 270353Z AUTO 33004KT 10SM CLR 09/07 A3022 RMK AO2 SLP233 T00940067
Loading
Personal Weather Stations






























Interactive Weather Map New forecast layout! Learn more

10-Day Weather Forecast

Advertisements
Track Severe Weather on mobile